sensor_id;sensor_type;location;lat;lon;timestamp;P1;durP1;ratioP1;P2;durP2;ratioP2
4500;SDS011;2263;54.654;9.410;2023-07-31T00:01:09;2.63;;;1.10;;
4500;SDS011;2263;54.654;9.410;2023-07-31T00:03:36;2.67;;;1.73;;
4500;SDS011;2263;54.654;9.410;2023-07-31T00:06:04;3.93;;;1.27;;
4500;SDS011;2263;54.654;9.410;2023-07-31T00:08:31;3.17;;;1.27;;
4500;SDS011;2263;54.654;9.410;2023-07-31T00:10:59;1.70;;;0.90;;
4500;SDS011;2263;54.654;9.410;2023-07-31T00:13:27;2.43;;;1.33;;
4500;SDS011;2263;54.654;9.410;2023-07-31T00:15:54;8.57;;;1.60;;
4500;SDS011;2263;54.654;9.410;2023-07-31T00:18:22;4.57;;;1.33;;
4500;SDS011;2263;54.654;9.410;2023-07-31T00:20:49;3.00;;;1.10;;
4500;SDS011;2263;54.654;9.410;2023-07-31T00:23:17;2.00;;;1.40;;
4500;SDS011;2263;54.654;9.410;2023-07-31T00:25:45;3.10;;;1.00;;
4500;SDS011;2263;54.654;9.410;2023-07-31T00:28:12;2.40;;;1.40;;
4500;SDS011;2263;54.654;9.410;2023-07-31T00:30:40;2.70;;;0.80;;
4500;SDS011;2263;54.654;9.410;2023-07-31T00:33:08;4.07;;;1.30;;
4500;SDS011;2263;54.654;9.410;2023-07-31T00:35:35;4.77;;;1.33;;
4500;SDS011;2263;54.654;9.410;2023-07-31T00:38:03;3.73;;;1.20;;
4500;SDS011;2263;54.654;9.410;2023-07-31T00:40:34;4.10;;;1.70;;
4500;SDS011;2263;54.654;9.410;2023-07-31T00:43:03;4.10;;;1.60;;
4500;SDS011;2263;54.654;9.410;2023-07-31T00:45:31;3.00;;;1.30;;
4500;SDS011;2263;54.654;9.410;2023-07-31T00:48:00;3.80;;;2.40;;
4500;SDS011;2263;54.654;9.410;2023-07-31T00:50:28;3.30;;;1.60;;
4500;SDS011;2263;54.654;9.410;2023-07-31T00:52:56;3.00;;;1.10;;
4500;SDS011;2263;54.654;9.410;2023-07-31T00:55:24;2.13;;;0.97;;
4500;SDS011;2263;54.654;9.410;2023-07-31T00:57:52;5.20;;;1.50;;
4500;SDS011;2263;54.654;9.410;2023-07-31T01:00:25;3.50;;;1.37;;
4500;SDS011;2263;54.654;9.410;2023-07-31T01:02:52;1.50;;;0.80;;
4500;SDS011;2263;54.654;9.410;2023-07-31T01:05:23;2.30;;;1.23;;
4500;SDS011;2263;54.654;9.410;2023-07-31T01:08:03;3.50;;;1.00;;
4500;SDS011;2263;54.654;9.410;2023-07-31T01:10:46;3.37;;;1.53;;
4500;SDS011;2263;54.654;9.410;2023-07-31T01:13:19;5.30;;;1.40;;
4500;SDS011;2263;54.654;9.410;2023-07-31T01:15:47;2.13;;;1.80;;
4500;SDS011;2263;54.654;9.410;2023-07-31T01:18:15;6.03;;;1.47;;
4500;SDS011;2263;54.654;9.410;2023-07-31T01:20:42;2.83;;;1.13;;
4500;SDS011;2263;54.654;9.410;2023-07-31T01:26:21;5.57;;;1.93;;
4500;SDS011;2263;54.654;9.410;2023-07-31T01:31:33;4.43;;;1.20;;
4500;SDS011;2263;54.654;9.410;2023-07-31T01:34:03;6.30;;;1.30;;
4500;SDS011;2263;54.654;9.410;2023-07-31T01:36:33;3.43;;;1.10;;
4500;SDS011;2263;54.654;9.410;2023-07-31T01:39:01;3.93;;;1.43;;
4500;SDS011;2263;54.654;9.410;2023-07-31T01:41:31;4.97;;;0.90;;
4500;SDS011;2263;54.654;9.410;2023-07-31T01:43:59;5.33;;;1.40;;
4500;SDS011;2263;54.654;9.410;2023-07-31T01:46:27;3.80;;;1.30;;
4500;SDS011;2263;54.654;9.410;2023-07-31T01:48:54;5.23;;;1.37;;
4500;SDS011;2263;54.654;9.410;2023-07-31T01:51:22;5.77;;;1.30;;
4500;SDS011;2263;54.654;9.410;2023-07-31T01:53:49;3.60;;;1.33;;
4500;SDS011;2263;54.654;9.410;2023-07-31T01:56:17;3.33;;;1.30;;
4500;SDS011;2263;54.654;9.410;2023-07-31T01:58:47;2.40;;;0.90;;
4500;SDS011;2263;54.654;9.410;2023-07-31T02:01:15;13.27;;;2.17;;
4500;SDS011;2263;54.654;9.410;2023-07-31T02:03:42;11.83;;;1.47;;
4500;SDS011;2263;54.654;9.410;2023-07-31T02:06:10;3.30;;;2.27;;
4500;SDS011;2263;54.654;9.410;2023-07-31T02:08:38;2.40;;;1.63;;
4500;SDS011;2263;54.654;9.410;2023-07-31T02:11:05;3.20;;;1.20;;
4500;SDS011;2263;54.654;9.410;2023-07-31T02:13:33;6.80;;;1.67;;
4500;SDS011;2263;54.654;9.410;2023-07-31T02:16:01;2.20;;;1.60;;
4500;SDS011;2263;54.654;9.410;2023-07-31T02:18:29;3.77;;;1.40;;
4500;SDS011;2263;54.654;9.410;2023-07-31T02:20:56;2.37;;;2.17;;
4500;SDS011;2263;54.654;9.410;2023-07-31T02:23:24;3.70;;;1.83;;
4500;SDS011;2263;54.654;9.410;2023-07-31T02:25:52;1.93;;;1.60;;
4500;SDS011;2263;54.654;9.410;2023-07-31T02:28:19;3.10;;;2.77;;
4500;SDS011;2263;54.654;9.410;2023-07-31T02:30:47;6.07;;;1.80;;
4500;SDS011;2263;54.654;9.410;2023-07-31T02:33:16;2.83;;;1.80;;
4500;SDS011;2263;54.654;9.410;2023-07-31T02:35:44;4.50;;;1.83;;
4500;SDS011;2263;54.654;9.410;2023-07-31T02:38:12;3.40;;;2.20;;
4500;SDS011;2263;54.654;9.410;2023-07-31T02:40:40;5.90;;;2.07;;
4500;SDS011;2263;54.654;9.410;2023-07-31T02:43:10;4.37;;;1.73;;
4500;SDS011;2263;54.654;9.410;2023-07-31T02:45:38;6.60;;;1.77;;
4500;SDS011;2263;54.654;9.410;2023-07-31T02:48:05;4.13;;;2.00;;
4500;SDS011;2263;54.654;9.410;2023-07-31T02:50:33;1.90;;;1.40;;
4500;SDS011;2263;54.654;9.410;2023-07-31T02:53:01;2.63;;;1.30;;
4500;SDS011;2263;54.654;9.410;2023-07-31T02:55:28;7.00;;;2.33;;
4500;SDS011;2263;54.654;9.410;2023-07-31T02:57:56;3.90;;;1.40;;
4500;SDS011;2263;54.654;9.410;2023-07-31T03:00:25;6.27;;;1.97;;
4500;SDS011;2263;54.654;9.410;2023-07-31T03:02:52;3.33;;;2.47;;
4500;SDS011;2263;54.654;9.410;2023-07-31T03:05:20;4.27;;;1.73;;
4500;SDS011;2263;54.654;9.410;2023-07-31T03:07:48;4.97;;;1.87;;
4500;SDS011;2263;54.654;9.410;2023-07-31T03:10:15;9.13;;;1.93;;
4500;SDS011;2263;54.654;9.410;2023-07-31T03:12:47;8.53;;;1.70;;
4500;SDS011;2263;54.654;9.410;2023-07-31T03:15:15;3.20;;;1.50;;
4500;SDS011;2263;54.654;9.410;2023-07-31T03:17:42;3.50;;;1.83;;
4500;SDS011;2263;54.654;9.410;2023-07-31T03:20:10;3.10;;;1.63;;
4500;SDS011;2263;54.654;9.410;2023-07-31T03:22:38;5.63;;;1.60;;
4500;SDS011;2263;54.654;9.410;2023-07-31T03:25:06;3.23;;;1.67;;
4500;SDS011;2263;54.654;9.410;2023-07-31T03:27:34;6.90;;;2.17;;
4500;SDS011;2263;54.654;9.410;2023-07-31T03:30:02;5.57;;;2.37;;
4500;SDS011;2263;54.654;9.410;2023-07-31T03:32:30;7.03;;;1.47;;
4500;SDS011;2263;54.654;9.410;2023-07-31T03:34:58;6.77;;;2.70;;
4500;SDS011;2263;54.654;9.410;2023-07-31T03:37:26;4.97;;;2.13;;
4500;SDS011;2263;54.654;9.410;2023-07-31T03:39:56;4.70;;;1.60;;
4500;SDS011;2263;54.654;9.410;2023-07-31T03:42:24;8.67;;;2.03;;
4500;SDS011;2263;54.654;9.410;2023-07-31T03:44:51;6.77;;;2.00;;
4500;SDS011;2263;54.654;9.410;2023-07-31T03:47:19;5.03;;;2.07;;
4500;SDS011;2263;54.654;9.410;2023-07-31T03:49:46;5.20;;;1.97;;
4500;SDS011;2263;54.654;9.410;2023-07-31T03:52:14;6.93;;;2.40;;
4500;SDS011;2263;54.654;9.410;2023-07-31T03:54:42;3.17;;;1.30;;
4500;SDS011;2263;54.654;9.410;2023-07-31T03:57:11;4.33;;;1.77;;
4500;SDS011;2263;54.654;9.410;2023-07-31T03:59:38;4.23;;;1.77;;
4500;SDS011;2263;54.654;9.410;2023-07-31T04:02:06;3.50;;;1.90;;
4500;SDS011;2263;54.654;9.410;2023-07-31T04:04:34;4.20;;;2.23;;
4500;SDS011;2263;54.654;9.410;2023-07-31T04:07:02;2.33;;;1.83;;
4500;SDS011;2263;54.654;9.410;2023-07-31T04:09:29;7.13;;;3.03;;
4500;SDS011;2263;54.654;9.410;2023-07-31T04:11:57;3.77;;;2.60;;
4500;SDS011;2263;54.654;9.410;2023-07-31T04:14:25;3.23;;;1.67;;
4500;SDS011;2263;54.654;9.410;2023-07-31T04:16:52;2.80;;;2.03;;
4500;SDS011;2263;54.654;9.410;2023-07-31T04:19:20;5.10;;;2.00;;
4500;SDS011;2263;54.654;9.410;2023-07-31T04:21:47;4.30;;;2.13;;
4500;SDS011;2263;54.654;9.410;2023-07-31T04:24:15;4.40;;;2.53;;
4500;SDS011;2263;54.654;9.410;2023-07-31T04:26:49;5.60;;;1.90;;
4500;SDS011;2263;54.654;9.410;2023-07-31T04:29:19;5.70;;;2.33;;
4500;SDS011;2263;54.654;9.410;2023-07-31T04:31:47;9.40;;;3.00;;
4500;SDS011;2263;54.654;9.410;2023-07-31T04:34:15;7.50;;;2.57;;
4500;SDS011;2263;54.654;9.410;2023-07-31T04:36:43;5.57;;;2.00;;
4500;SDS011;2263;54.654;9.410;2023-07-31T04:39:10;4.73;;;2.47;;
4500;SDS011;2263;54.654;9.410;2023-07-31T04:41:38;3.43;;;2.20;;
4500;SDS011;2263;54.654;9.410;2023-07-31T04:44:05;6.00;;;3.60;;
4500;SDS011;2263;54.654;9.410;2023-07-31T04:46:33;4.10;;;2.27;;
4500;SDS011;2263;54.654;9.410;2023-07-31T04:49:00;4.43;;;2.03;;
4500;SDS011;2263;54.654;9.410;2023-07-31T04:51:28;5.80;;;2.80;;
4500;SDS011;2263;54.654;9.410;2023-07-31T04:53:56;3.27;;;2.17;;
4500;SDS011;2263;54.654;9.410;2023-07-31T04:56:23;2.43;;;1.70;;
4500;SDS011;2263;54.654;9.410;2023-07-31T04:58:51;3.53;;;2.57;;
4500;SDS011;2263;54.654;9.410;2023-07-31T05:01:19;2.27;;;1.50;;
4500;SDS011;2263;54.654;9.410;2023-07-31T05:03:46;9.00;;;2.30;;
4500;SDS011;2263;54.654;9.410;2023-07-31T05:06:14;4.30;;;2.13;;
4500;SDS011;2263;54.654;9.410;2023-07-31T05:08:42;3.60;;;1.87;;
4500;SDS011;2263;54.654;9.410;2023-07-31T05:11:09;4.43;;;2.33;;
4500;SDS011;2263;54.654;9.410;2023-07-31T05:13:37;3.50;;;2.60;;
4500;SDS011;2263;54.654;9.410;2023-07-31T05:16:05;2.10;;;1.80;;
4500;SDS011;2263;54.654;9.410;2023-07-31T05:18:32;4.10;;;1.83;;
4500;SDS011;2263;54.654;9.410;2023-07-31T05:21:00;3.03;;;1.80;;
4500;SDS011;2263;54.654;9.410;2023-07-31T05:23:28;3.37;;;2.20;;
4500;SDS011;2263;54.654;9.410;2023-07-31T05:26:01;2.13;;;1.93;;
4500;SDS011;2263;54.654;9.410;2023-07-31T05:28:30;2.07;;;1.97;;
4500;SDS011;2263;54.654;9.410;2023-07-31T05:30:59;4.67;;;2.60;;
4500;SDS011;2263;54.654;9.410;2023-07-31T05:33:30;8.77;;;3.20;;
4500;SDS011;2263;54.654;9.410;2023-07-31T05:35:59;3.93;;;3.37;;
4500;SDS011;2263;54.654;9.410;2023-07-31T05:38:27;5.10;;;2.23;;
4500;SDS011;2263;54.654;9.410;2023-07-31T05:40:55;5.03;;;2.33;;
4500;SDS011;2263;54.654;9.410;2023-07-31T05:43:23;3.90;;;2.47;;
4500;SDS011;2263;54.654;9.410;2023-07-31T05:45:50;4.57;;;2.70;;
4500;SDS011;2263;54.654;9.410;2023-07-31T05:48:18;6.57;;;2.70;;
4500;SDS011;2263;54.654;9.410;2023-07-31T05:50:46;7.60;;;3.30;;
4500;SDS011;2263;54.654;9.410;2023-07-31T05:53:13;4.03;;;2.27;;
4500;SDS011;2263;54.654;9.410;2023-07-31T05:55:41;2.70;;;2.50;;
4500;SDS011;2263;54.654;9.410;2023-07-31T05:58:09;6.37;;;3.37;;
4500;SDS011;2263;54.654;9.410;2023-07-31T06:00:37;2.93;;;2.13;;
4500;SDS011;2263;54.654;9.410;2023-07-31T06:03:04;5.23;;;3.30;;
4500;SDS011;2263;54.654;9.410;2023-07-31T06:05:32;4.27;;;2.50;;
4500;SDS011;2263;54.654;9.410;2023-07-31T06:07:59;5.37;;;2.77;;
4500;SDS011;2263;54.654;9.410;2023-07-31T06:10:27;6.27;;;2.80;;
4500;SDS011;2263;54.654;9.410;2023-07-31T06:12:55;2.43;;;2.23;;
4500;SDS011;2263;54.654;9.410;2023-07-31T06:15:24;4.90;;;2.83;;
4500;SDS011;2263;54.654;9.410;2023-07-31T06:17:51;2.83;;;2.53;;
4500;SDS011;2263;54.654;9.410;2023-07-31T06:20:19;5.70;;;2.57;;
4500;SDS011;2263;54.654;9.410;2023-07-31T06:22:47;5.67;;;2.97;;
4500;SDS011;2263;54.654;9.410;2023-07-31T06:25:14;3.90;;;2.33;;
4500;SDS011;2263;54.654;9.410;2023-07-31T06:27:42;6.77;;;2.23;;
4500;SDS011;2263;54.654;9.410;2023-07-31T06:30:10;3.87;;;1.60;;
4500;SDS011;2263;54.654;9.410;2023-07-31T06:32:38;4.50;;;2.20;;
4500;SDS011;2263;54.654;9.410;2023-07-31T06:35:07;3.67;;;1.77;;
4500;SDS011;2263;54.654;9.410;2023-07-31T06:37:35;5.43;;;2.80;;
4500;SDS011;2263;54.654;9.410;2023-07-31T06:40:03;5.17;;;2.40;;
4500;SDS011;2263;54.654;9.410;2023-07-31T06:42:32;3.90;;;2.30;;
4500;SDS011;2263;54.654;9.410;2023-07-31T06:45:00;4.43;;;2.07;;
4500;SDS011;2263;54.654;9.410;2023-07-31T06:47:28;4.00;;;3.10;;
4500;SDS011;2263;54.654;9.410;2023-07-31T06:49:55;2.03;;;1.80;;
4500;SDS011;2263;54.654;9.410;2023-07-31T06:52:23;2.80;;;2.20;;
4500;SDS011;2263;54.654;9.410;2023-07-31T06:55:01;3.10;;;2.10;;
4500;SDS011;2263;54.654;9.410;2023-07-31T06:57:49;6.93;;;2.43;;
4500;SDS011;2263;54.654;9.410;2023-07-31T07:00:18;6.13;;;2.20;;
4500;SDS011;2263;54.654;9.410;2023-07-31T07:02:47;5.80;;;1.90;;
4500;SDS011;2263;54.654;9.410;2023-07-31T07:05:18;3.47;;;1.70;;
4500;SDS011;2263;54.654;9.410;2023-07-31T07:07:48;4.10;;;2.20;;
4500;SDS011;2263;54.654;9.410;2023-07-31T07:10:18;6.83;;;2.30;;
4500;SDS011;2263;54.654;9.410;2023-07-31T07:12:45;2.40;;;2.10;;
4500;SDS011;2263;54.654;9.410;2023-07-31T07:15:13;1.87;;;1.67;;
4500;SDS011;2263;54.654;9.410;2023-07-31T07:17:44;7.53;;;1.93;;
4500;SDS011;2263;54.654;9.410;2023-07-31T07:20:11;2.87;;;1.53;;
4500;SDS011;2263;54.654;9.410;2023-07-31T07:22:39;3.10;;;1.77;;
4500;SDS011;2263;54.654;9.410;2023-07-31T07:25:09;3.53;;;1.37;;
4500;SDS011;2263;54.654;9.410;2023-07-31T07:27:37;3.60;;;1.37;;
4500;SDS011;2263;54.654;9.410;2023-07-31T07:30:05;3.40;;;2.13;;
4500;SDS011;2263;54.654;9.410;2023-07-31T07:32:33;2.77;;;1.47;;
4500;SDS011;2263;54.654;9.410;2023-07-31T07:35:01;5.67;;;1.40;;
4500;SDS011;2263;54.654;9.410;2023-07-31T07:37:28;3.93;;;1.70;;
4500;SDS011;2263;54.654;9.410;2023-07-31T07:39:57;3.43;;;1.50;;
4500;SDS011;2263;54.654;9.410;2023-07-31T07:42:25;3.97;;;1.70;;
4500;SDS011;2263;54.654;9.410;2023-07-31T07:44:52;3.03;;;1.57;;
4500;SDS011;2263;54.654;9.410;2023-07-31T07:47:20;4.70;;;1.40;;
4500;SDS011;2263;54.654;9.410;2023-07-31T07:49:48;3.30;;;1.33;;
4500;SDS011;2263;54.654;9.410;2023-07-31T07:52:19;4.60;;;1.80;;
4500;SDS011;2263;54.654;9.410;2023-07-31T07:54:46;2.97;;;1.30;;
4500;SDS011;2263;54.654;9.410;2023-07-31T07:57:14;2.23;;;1.50;;
4500;SDS011;2263;54.654;9.410;2023-07-31T07:59:42;4.47;;;1.87;;
4500;SDS011;2263;54.654;9.410;2023-07-31T08:02:09;2.57;;;1.20;;
4500;SDS011;2263;54.654;9.410;2023-07-31T08:04:37;3.00;;;1.73;;
4500;SDS011;2263;54.654;9.410;2023-07-31T08:07:04;2.30;;;1.20;;
4500;SDS011;2263;54.654;9.410;2023-07-31T08:09:32;2.03;;;1.23;;
4500;SDS011;2263;54.654;9.410;2023-07-31T08:12:00;4.10;;;1.77;;
4500;SDS011;2263;54.654;9.410;2023-07-31T08:14:30;3.63;;;1.87;;
4500;SDS011;2263;54.654;9.410;2023-07-31T08:16:59;3.50;;;1.17;;
4500;SDS011;2263;54.654;9.410;2023-07-31T08:19:27;2.13;;;1.80;;
4500;SDS011;2263;54.654;9.410;2023-07-31T08:21:55;2.83;;;2.50;;
4500;SDS011;2263;54.654;9.410;2023-07-31T08:24:24;3.17;;;2.97;;
4500;SDS011;2263;54.654;9.410;2023-07-31T08:26:51;3.23;;;2.97;;
4500;SDS011;2263;54.654;9.410;2023-07-31T08:29:19;6.60;;;2.53;;
4500;SDS011;2263;54.654;9.410;2023-07-31T08:31:47;8.93;;;2.97;;
4500;SDS011;2263;54.654;9.410;2023-07-31T08:34:14;2.50;;;2.30;;
4500;SDS011;2263;54.654;9.410;2023-07-31T08:36:42;17.37;;;3.80;;
4500;SDS011;2263;54.654;9.410;2023-07-31T08:39:10;5.20;;;2.27;;
4500;SDS011;2263;54.654;9.410;2023-07-31T08:41:40;2.20;;;1.87;;
4500;SDS011;2263;54.654;9.410;2023-07-31T08:44:08;5.10;;;1.47;;
4500;SDS011;2263;54.654;9.410;2023-07-31T08:46:37;3.53;;;3.23;;
4500;SDS011;2263;54.654;9.410;2023-07-31T08:49:06;2.73;;;1.70;;
4500;SDS011;2263;54.654;9.410;2023-07-31T08:51:35;3.27;;;1.57;;
4500;SDS011;2263;54.654;9.410;2023-07-31T08:54:03;4.60;;;1.90;;
4500;SDS011;2263;54.654;9.410;2023-07-31T08:56:33;2.40;;;1.57;;
4500;SDS011;2263;54.654;9.410;2023-07-31T08:59:03;5.57;;;2.40;;
4500;SDS011;2263;54.654;9.410;2023-07-31T09:01:33;3.20;;;1.53;;
4500;SDS011;2263;54.654;9.410;2023-07-31T09:04:07;3.20;;;2.10;;
4500;SDS011;2263;54.654;9.410;2023-07-31T09:06:37;6.57;;;2.53;;
4500;SDS011;2263;54.654;9.410;2023-07-31T09:09:06;4.43;;;1.87;;
4500;SDS011;2263;54.654;9.410;2023-07-31T09:11:34;5.87;;;1.80;;
4500;SDS011;2263;54.654;9.410;2023-07-31T09:14:02;5.87;;;2.50;;
4500;SDS011;2263;54.654;9.410;2023-07-31T09:16:35;9.80;;;2.27;;
4500;SDS011;2263;54.654;9.410;2023-07-31T09:19:24;7.03;;;2.10;;
4500;SDS011;2263;54.654;9.410;2023-07-31T09:22:07;11.57;;;3.97;;
4500;SDS011;2263;54.654;9.410;2023-07-31T09:24:34;4.73;;;2.60;;
4500;SDS011;2263;54.654;9.410;2023-07-31T09:27:03;2.53;;;1.60;;
4500;SDS011;2263;54.654;9.410;2023-07-31T09:29:31;3.37;;;2.07;;
4500;SDS011;2263;54.654;9.410;2023-07-31T09:31:59;7.23;;;2.23;;
4500;SDS011;2263;54.654;9.410;2023-07-31T09:34:31;4.27;;;1.87;;
4500;SDS011;2263;54.654;9.410;2023-07-31T09:37:07;5.87;;;1.80;;
4500;SDS011;2263;54.654;9.410;2023-07-31T09:39:45;12.37;;;3.70;;
4500;SDS011;2263;54.654;9.410;2023-07-31T09:42:14;7.10;;;2.57;;
4500;SDS011;2263;54.654;9.410;2023-07-31T09:44:50;6.27;;;2.00;;
4500;SDS011;2263;54.654;9.410;2023-07-31T09:47:21;5.30;;;1.80;;
4500;SDS011;2263;54.654;9.410;2023-07-31T09:49:53;8.43;;;2.40;;
4500;SDS011;2263;54.654;9.410;2023-07-31T09:52:20;6.33;;;2.87;;
4500;SDS011;2263;54.654;9.410;2023-07-31T09:54:49;3.63;;;2.40;;
4500;SDS011;2263;54.654;9.410;2023-07-31T09:57:16;4.73;;;1.80;;
4500;SDS011;2263;54.654;9.410;2023-07-31T09:59:46;4.63;;;2.37;;
4500;SDS011;2263;54.654;9.410;2023-07-31T10:02:19;5.13;;;2.40;;
4500;SDS011;2263;54.654;9.410;2023-07-31T10:04:49;5.90;;;1.90;;
4500;SDS011;2263;54.654;9.410;2023-07-31T10:07:17;3.80;;;2.50;;
4500;SDS011;2263;54.654;9.410;2023-07-31T10:09:45;10.03;;;3.77;;
4500;SDS011;2263;54.654;9.410;2023-07-31T10:12:14;5.10;;;2.17;;
4500;SDS011;2263;54.654;9.410;2023-07-31T10:14:45;5.33;;;2.30;;
4500;SDS011;2263;54.654;9.410;2023-07-31T10:17:13;10.37;;;2.90;;
4500;SDS011;2263;54.654;9.410;2023-07-31T10:19:42;4.60;;;1.73;;
4500;SDS011;2263;54.654;9.410;2023-07-31T10:22:11;8.20;;;1.97;;
4500;SDS011;2263;54.654;9.410;2023-07-31T10:24:39;4.97;;;2.07;;
4500;SDS011;2263;54.654;9.410;2023-07-31T10:27:09;2.27;;;1.33;;
4500;SDS011;2263;54.654;9.410;2023-07-31T10:29:40;6.33;;;3.23;;
4500;SDS011;2263;54.654;9.410;2023-07-31T10:32:10;7.30;;;2.63;;
4500;SDS011;2263;54.654;9.410;2023-07-31T10:34:39;3.00;;;1.70;;
4500;SDS011;2263;54.654;9.410;2023-07-31T10:39:57;3.23;;;1.00;;
4500;SDS011;2263;54.654;9.410;2023-07-31T10:42:32;8.00;;;2.10;;
4500;SDS011;2263;54.654;9.410;2023-07-31T10:45:08;2.70;;;1.83;;
4500;SDS011;2263;54.654;9.410;2023-07-31T10:47:42;6.97;;;2.10;;
4500;SDS011;2263;54.654;9.410;2023-07-31T10:50:16;7.07;;;2.63;;
4500;SDS011;2263;54.654;9.410;2023-07-31T10:52:50;4.43;;;1.67;;
4500;SDS011;2263;54.654;9.410;2023-07-31T10:55:27;2.60;;;1.67;;
4500;SDS011;2263;54.654;9.410;2023-07-31T10:58:09;2.43;;;1.53;;
4500;SDS011;2263;54.654;9.410;2023-07-31T11:00:38;8.50;;;3.47;;
4500;SDS011;2263;54.654;9.410;2023-07-31T11:03:08;2.30;;;1.60;;
4500;SDS011;2263;54.654;9.410;2023-07-31T11:05:44;2.37;;;1.83;;
4500;SDS011;2263;54.654;9.410;2023-07-31T11:08:31;2.10;;;1.90;;
4500;SDS011;2263;54.654;9.410;2023-07-31T11:16:16;3.53;;;1.63;;
4500;SDS011;2263;54.654;9.410;2023-07-31T11:18:46;1.80;;;1.23;;
4500;SDS011;2263;54.654;9.410;2023-07-31T11:21:16;3.23;;;1.80;;
4500;SDS011;2263;54.654;9.410;2023-07-31T11:23:46;2.70;;;1.60;;
4500;SDS011;2263;54.654;9.410;2023-07-31T11:26:15;3.33;;;1.60;;
4500;SDS011;2263;54.654;9.410;2023-07-31T11:28:46;1.83;;;1.67;;
4500;SDS011;2263;54.654;9.410;2023-07-31T11:31:14;3.17;;;2.13;;
4500;SDS011;2263;54.654;9.410;2023-07-31T11:33:42;2.10;;;1.53;;
4500;SDS011;2263;54.654;9.410;2023-07-31T11:36:14;3.83;;;1.63;;
4500;SDS011;2263;54.654;9.410;2023-07-31T11:38:43;4.37;;;1.40;;
4500;SDS011;2263;54.654;9.410;2023-07-31T11:41:13;4.60;;;1.70;;
4500;SDS011;2263;54.654;9.410;2023-07-31T11:43:42;4.10;;;1.90;;
4500;SDS011;2263;54.654;9.410;2023-07-31T11:46:10;3.10;;;1.80;;
4500;SDS011;2263;54.654;9.410;2023-07-31T11:48:39;3.47;;;1.40;;
4500;SDS011;2263;54.654;9.410;2023-07-31T11:51:08;4.23;;;2.37;;
4500;SDS011;2263;54.654;9.410;2023-07-31T11:56:22;2.50;;;1.70;;
4500;SDS011;2263;54.654;9.410;2023-07-31T11:58:57;5.00;;;2.23;;
4500;SDS011;2263;54.654;9.410;2023-07-31T12:01:26;2.90;;;1.30;;
4500;SDS011;2263;54.654;9.410;2023-07-31T12:03:55;3.00;;;1.53;;
4500;SDS011;2263;54.654;9.410;2023-07-31T12:06:33;4.40;;;2.00;;
4500;SDS011;2263;54.654;9.410;2023-07-31T12:09:05;4.30;;;2.10;;
4500;SDS011;2263;54.654;9.410;2023-07-31T12:11:46;2.67;;;1.70;;
4500;SDS011;2263;54.654;9.410;2023-07-31T12:14:24;2.43;;;1.13;;
4500;SDS011;2263;54.654;9.410;2023-07-31T12:16:53;1.93;;;1.43;;
4500;SDS011;2263;54.654;9.410;2023-07-31T12:19:23;1.87;;;1.57;;
4500;SDS011;2263;54.654;9.410;2023-07-31T12:21:54;2.47;;;1.50;;
4500;SDS011;2263;54.654;9.410;2023-07-31T12:24:29;1.70;;;1.43;;
4500;SDS011;2263;54.654;9.410;2023-07-31T12:26:57;1.60;;;1.30;;
4500;SDS011;2263;54.654;9.410;2023-07-31T12:29:33;2.23;;;1.40;;
4500;SDS011;2263;54.654;9.410;2023-07-31T12:32:22;1.80;;;1.27;;
4500;SDS011;2263;54.654;9.410;2023-07-31T12:34:58;1.90;;;1.40;;
4500;SDS011;2263;54.654;9.410;2023-07-31T12:37:28;2.47;;;1.53;;
4500;SDS011;2263;54.654;9.410;2023-07-31T12:39:56;2.07;;;1.40;;
4500;SDS011;2263;54.654;9.410;2023-07-31T12:42:27;2.53;;;1.57;;
4500;SDS011;2263;54.654;9.410;2023-07-31T12:44:57;3.13;;;1.23;;
4500;SDS011;2263;54.654;9.410;2023-07-31T12:47:25;2.90;;;1.30;;
4500;SDS011;2263;54.654;9.410;2023-07-31T12:49:53;1.97;;;1.03;;
4500;SDS011;2263;54.654;9.410;2023-07-31T12:52:21;1.90;;;1.10;;
4500;SDS011;2263;54.654;9.410;2023-07-31T12:54:48;1.63;;;1.20;;
4500;SDS011;2263;54.654;9.410;2023-07-31T12:57:16;4.80;;;1.30;;
4500;SDS011;2263;54.654;9.410;2023-07-31T12:59:43;3.90;;;1.30;;
4500;SDS011;2263;54.654;9.410;2023-07-31T13:02:11;2.47;;;1.40;;
4500;SDS011;2263;54.654;9.410;2023-07-31T13:04:39;5.37;;;1.50;;
4500;SDS011;2263;54.654;9.410;2023-07-31T13:07:06;39.17;;;25.13;;
4500;SDS011;2263;54.654;9.410;2023-07-31T13:09:34;58.47;;;36.57;;
4500;SDS011;2263;54.654;9.410;2023-07-31T13:12:02;78.40;;;44.93;;
4500;SDS011;2263;54.654;9.410;2023-07-31T13:14:30;45.33;;;28.47;;
4500;SDS011;2263;54.654;9.410;2023-07-31T13:16:57;53.03;;;28.43;;
4500;SDS011;2263;54.654;9.410;2023-07-31T13:19:25;36.13;;;25.17;;
4500;SDS011;2263;54.654;9.410;2023-07-31T13:21:53;30.83;;;20.33;;
4500;SDS011;2263;54.654;9.410;2023-07-31T13:24:20;28.93;;;15.93;;
4500;SDS011;2263;54.654;9.410;2023-07-31T13:26:48;20.50;;;13.23;;
4500;SDS011;2263;54.654;9.410;2023-07-31T13:29:16;14.97;;;10.20;;
4500;SDS011;2263;54.654;9.410;2023-07-31T13:31:43;13.07;;;8.97;;
4500;SDS011;2263;54.654;9.410;2023-07-31T13:34:11;11.90;;;9.17;;
4500;SDS011;2263;54.654;9.410;2023-07-31T13:36:39;9.63;;;5.10;;
4500;SDS011;2263;54.654;9.410;2023-07-31T13:39:07;9.10;;;7.40;;
4500;SDS011;2263;54.654;9.410;2023-07-31T13:41:34;8.10;;;6.20;;
4500;SDS011;2263;54.654;9.410;2023-07-31T13:44:02;8.20;;;4.80;;
4500;SDS011;2263;54.654;9.410;2023-07-31T13:46:30;9.90;;;5.53;;
4500;SDS011;2263;54.654;9.410;2023-07-31T13:48:59;4.40;;;3.30;;
4500;SDS011;2263;54.654;9.410;2023-07-31T13:51:28;4.50;;;3.77;;
4500;SDS011;2263;54.654;9.410;2023-07-31T13:53:56;4.57;;;4.17;;
4500;SDS011;2263;54.654;9.410;2023-07-31T13:56:23;4.53;;;4.10;;
4500;SDS011;2263;54.654;9.410;2023-07-31T13:58:53;5.23;;;4.37;;
4500;SDS011;2263;54.654;9.410;2023-07-31T14:01:21;4.87;;;3.53;;
4500;SDS011;2263;54.654;9.410;2023-07-31T14:03:49;5.20;;;4.80;;
4500;SDS011;2263;54.654;9.410;2023-07-31T14:06:16;7.63;;;5.20;;
4500;SDS011;2263;54.654;9.410;2023-07-31T14:08:44;8.40;;;4.43;;
4500;SDS011;2263;54.654;9.410;2023-07-31T14:11:11;5.80;;;3.80;;
4500;SDS011;2263;54.654;9.410;2023-07-31T14:13:39;4.17;;;3.80;;
4500;SDS011;2263;54.654;9.410;2023-07-31T14:16:07;4.83;;;4.33;;
4500;SDS011;2263;54.654;9.410;2023-07-31T14:18:35;4.90;;;4.50;;
4500;SDS011;2263;54.654;9.410;2023-07-31T14:21:03;3.60;;;2.93;;
4500;SDS011;2263;54.654;9.410;2023-07-31T14:23:30;2.67;;;2.43;;
4500;SDS011;2263;54.654;9.410;2023-07-31T14:25:58;3.20;;;2.90;;
4500;SDS011;2263;54.654;9.410;2023-07-31T14:28:26;7.50;;;4.03;;
4500;SDS011;2263;54.654;9.410;2023-07-31T14:30:53;3.43;;;3.13;;
4500;SDS011;2263;54.654;9.410;2023-07-31T14:33:21;2.13;;;1.60;;
4500;SDS011;2263;54.654;9.410;2023-07-31T14:35:48;4.03;;;2.00;;
4500;SDS011;2263;54.654;9.410;2023-07-31T14:38:16;1.70;;;1.50;;
4500;SDS011;2263;54.654;9.410;2023-07-31T14:40:44;2.30;;;2.10;;
4500;SDS011;2263;54.654;9.410;2023-07-31T14:43:11;2.23;;;1.80;;
4500;SDS011;2263;54.654;9.410;2023-07-31T14:45:39;2.30;;;2.10;;
4500;SDS011;2263;54.654;9.410;2023-07-31T14:48:07;1.90;;;1.67;;
4500;SDS011;2263;54.654;9.410;2023-07-31T14:50:35;1.80;;;1.23;;
4500;SDS011;2263;54.654;9.410;2023-07-31T14:53:02;1.30;;;1.20;;
4500;SDS011;2263;54.654;9.410;2023-07-31T14:55:30;1.70;;;1.40;;
4500;SDS011;2263;54.654;9.410;2023-07-31T14:57:57;1.60;;;1.40;;
4500;SDS011;2263;54.654;9.410;2023-07-31T15:00:25;1.40;;;1.17;;
4500;SDS011;2263;54.654;9.410;2023-07-31T15:02:53;1.80;;;1.17;;
4500;SDS011;2263;54.654;9.410;2023-07-31T15:05:21;1.93;;;0.90;;
4500;SDS011;2263;54.654;9.410;2023-07-31T15:07:48;1.40;;;0.87;;
4500;SDS011;2263;54.654;9.410;2023-07-31T15:10:16;1.23;;;0.70;;
4500;SDS011;2263;54.654;9.410;2023-07-31T15:12:48;1.73;;;1.60;;
4500;SDS011;2263;54.654;9.410;2023-07-31T15:15:16;1.73;;;1.07;;
4500;SDS011;2263;54.654;9.410;2023-07-31T15:17:46;1.70;;;1.30;;
4500;SDS011;2263;54.654;9.410;2023-07-31T15:20:14;1.40;;;1.10;;
4500;SDS011;2263;54.654;9.410;2023-07-31T15:22:42;1.40;;;0.87;;
4500;SDS011;2263;54.654;9.410;2023-07-31T15:25:10;1.33;;;0.97;;
4500;SDS011;2263;54.654;9.410;2023-07-31T15:27:38;12.37;;;1.20;;
4500;SDS011;2263;54.654;9.410;2023-07-31T15:30:06;2.53;;;0.90;;
4500;SDS011;2263;54.654;9.410;2023-07-31T15:32:36;1.40;;;1.03;;
4500;SDS011;2263;54.654;9.410;2023-07-31T15:35:08;1.60;;;1.03;;
4500;SDS011;2263;54.654;9.410;2023-07-31T15:37:36;1.30;;;0.77;;
4500;SDS011;2263;54.654;9.410;2023-07-31T15:40:04;1.67;;;1.40;;
4500;SDS011;2263;54.654;9.410;2023-07-31T15:42:32;1.30;;;0.80;;